Cherry Spring, Texas
Current Conditions -  °F | °C
As of 2:55 PM on Thursday 20 Nov 2014 (Local Time) from KT82 Reporting Station
Overcast Overcast  
Wind Chill: 67°   Ceiling: 2600
Heat Index: 67°   Visibility: 10mi
Dew Point: 56°   Wind: 17mph
Humidity: 66%   Direction: 190°S
Pressure: 30.02"   Gusts: 23mph
Location:  30.3069°N, 98.8978°W
Report Text: KT82 202055Z AUTO 19015G20KT 10SM BKN026 OVC031 20/13 A3002 RMK AO2 T01970133
Loading
Personal Weather Stations






























Interactive Weather Map New forecast layout! Learn more

10-Day Weather Forecast

Advertisements
Track Severe Weather on mobile